Flight Track Log - Related Links

Times and Time Zones

All times are in EDT time to prevent confusion due to time zone crossing. See the KAP927 flight status page for this flight to view local times or setup timezone preferences in your user account.

Time Position Orientation Groundspeed Altitude Reporting Facility
EDT Latitude Longitude Course Direction KTS MPH feet Rate Location/Type
Thu 05:08:27 PM 44.5022 -75.3333 149° Southeast 156 180 4,200  Level Boston Center
Thu 05:09:27 PM 44.4717 -75.3000 142° Southeast 145 167 4,800 500 Climbing Boston Center
Thu 05:10:39 PM 44.4414 -75.2664 142° Southeast 139 160 5,300 591 Climbing Boston Center
Thu 05:11:39 PM 44.4003 -75.2353 152° Southeast 139 160 6,100 700 Climbing Boston Center
Thu 05:12:39 PM 44.3678 -75.2019 144° Southeast 139 160 6,700 500 Climbing Boston Center
Thu 05:13:00 PM 44.4902 -75.2947 149° Southeast  Level Estimated
Thu 05:13:39 PM 44.3350 -75.1772 152° Southeast 139 160 7,100  Level Boston Center
Thu 05:14:39 PM 44.2961 -75.1436 148° Southeast 144 166 7,100  Level Boston Center
Thu 05:15:39 PM 44.2575 -75.1128 150° Southeast 149 171 7,100  Level Boston Center
Thu 05:16:39 PM 44.2186 -75.0761 146° Southeast 161 185 7,100  Level Boston Center
Thu 05:17:39 PM 44.1819 -75.0428 147° Southeast 161 185 7,100  Level Boston Center
Thu 05:18:39 PM 44.1431 -75.0064 146° Southeast 161 185 7,100  Level Boston Center
Thu 05:19:39 PM 44.1128 -74.9589 132° Southeast 166 191 7,100  Level Boston Center
Thu 05:20:39 PM 44.0850 -74.8997 123° Southeast 172 198 7,100  Level Boston Center
Thu 05:21:39 PM 44.0547 -74.8464 128° Southeast 172 198 7,100  Level Boston Center
Thu 05:22:39 PM 44.0269 -74.7906 125° Southeast 177 204 7,100  Level Boston Center
Thu 05:23:39 PM 43.9986 -74.7375 127° Southeast 177 204 7,100  Level Boston Center
Thu 05:24:39 PM 43.9686 -74.6844 128° Southeast 177 204 7,100  Level Boston Center
Thu 05:25:39 PM 43.9383 -74.6314 128° Southeast 177 204 7,100  Level Boston Center
Thu 05:26:39 PM 43.9100 -74.5814 128° Southeast 177 204 7,100  Level Boston Center
Thu 05:27:39 PM 43.8756 -74.5339 135° Southeast 171 197 7,100 -50 Level Boston Center
Thu 05:28:39 PM 43.8364 -74.5125 158° South 164 189 7,000 -50 Descending Boston Center
Thu 05:29:39 PM 43.7950 -74.4881 157° South 164 189 7,000  Level Boston Center
Thu 05:30:39 PM 43.7581 -74.4581 150° Southeast 159 183 7,000 50 Level Boston Center
Thu 05:31:39 PM 43.7211 -74.4339 155° Southeast 153 176 7,100  Climbing Boston Center
Thu 05:32:39 PM 43.6817 -74.4094 156° South 153 176 7,000 -50 Descending Boston Center
Thu 05:33:39 PM 43.6425 -74.3911 161° South 153 176 7,000  Level Boston Center
Thu 05:34:39 PM 43.6078 -74.3583 146° Southeast 153 176 7,000 50 Level Boston Center
Thu 05:35:39 PM 43.5664 -74.3369 159° South 153 176 7,100  Climbing Boston Center
Thu 05:36:39 PM 43.5272 -74.3128 156° South 153 176 7,000 -100 Descending Boston Center
Thu 05:37:39 PM 43.4881 -74.2858 153° Southeast 153 176 6,900  Descending Boston Center
Thu 05:38:39 PM 43.4508 -74.2589 152° Southeast 153 176 7,000 158 Climbing Boston Center
Thu 05:38:55 PM 43.4406 -74.2531 158° South 153 176 7,100  Climbing Boston Center
Thu 05:39:39 PM 43.4178 -74.2381 154° Southeast 153 176 7,000 100 Descending Boston Center
Thu 05:39:55 PM 43.4033 -74.2261 149° Southeast 152 175 7,200  Climbing Boston Center
Thu 05:40:39 PM 43.3725 -74.2111 161° South 153 176 7,000 -98 Descending Boston Center
Thu 05:40:56 PM 43.3642 -74.2078 164° South 152 175 7,100  Climbing Boston Center
Thu 05:41:39 PM 43.3353 -74.1814 146° Southeast 153 176 7,000  Descending Boston Center
Thu 05:41:57 PM 43.3272 -74.1756 152° Southeast 157 181 7,100  Climbing Boston Center
Thu 05:42:51 PM 43.2900 -74.1486 152° Southeast 155 178 7,000 -316 Descending Boston Center
Thu 05:43:51 PM 43.2550 -74.1164 146° Southeast 160 184 6,500 -469 Descending Boston Center
Thu 05:44:59 PM 43.2036 -74.0778 151° Southeast 176 203 6,000 -500 Descending Boston Center
Thu 05:45:51 PM 43.1728 -74.0400 138° Southeast 175 201 5,500 -397 Descending Boston Center
Thu 05:47:00 PM 43.1256 -73.9961 146° Southeast 175 201 5,200 -350 Descending Boston Center
Thu 05:47:51 PM 43.0947 -73.9669 145° Southeast 175 201 4,800 -486 Descending Boston Center
Thu 05:48:51 PM 43.0492 -73.9289 149° Southeast 175 201 4,300 -450 Descending Boston Center
Thu 05:49:51 PM 43.0144 -73.8911 141° Southeast 175 201 3,900 -350 Descending Boston Center
Thu 05:50:51 PM 42.9689 -73.8561 151° Southeast 170 196 3,600 -231 Descending Boston Center
Thu 05:51:09 PM 42.9606 -73.8472 142° Southeast 169 194 3,600  Level Boston Center
Thu 05:51:51 PM 42.9361 -73.8211 142° Southeast 159 183 3,600  Level Boston Center
Thu 05:52:09 PM 42.9236 -73.8181 170° South 150 173 3,600 -500 Level Boston Center
Thu 05:52:51 PM 42.8964 -73.8147 175° South 154 177 3,100 -689 Descending Boston Center
Thu 05:53:10 PM 42.8778 -73.8114 173° South 159 183 2,900 -835 Descending Boston Center
Thu 05:54:10 PM 42.8381 -73.8133 182° South 148 170 2,000 -744 Descending Boston Center
Thu 05:55:11 PM 42.8089 -73.8100 175° South 104 120 1,400 -590 Descending Boston Center
Thu 05:56:12 PM 42.7778 -73.8092 179° South 100 115 800 -590 Descending Boston Center
Thu 05:58:00 PM 42.7491 -73.8020 160° South  Level Estimated
Thu 06:05:00 PM 42.7491 -73.8020 160° South  Level Estimated
Thu 06:06:00 PM 42.7491 -73.8020 160° South  Level Estimated
Thu 06:07:00 PM 42.7491 -73.8020 160° South  Level Estimated

Login

Don't have an account? Register now (free) for customized features, flight alerts, and more!